sensor_id;sensor_type;location;lat;lon;timestamp;pressure;altitude;pressure_sealevel;temperature;humidity
15229;BME280;7717;47.792;12.076;2024-02-26T00:01:25;94457.75;;;3.12;74.87
15229;BME280;7717;47.792;12.076;2024-02-26T00:03:50;94446.56;;;2.95;76.15
15229;BME280;7717;47.792;12.076;2024-02-26T00:06:15;94443.06;;;3.19;75.69
15229;BME280;7717;47.792;12.076;2024-02-26T00:08:41;94448.22;;;2.80;77.30
15229;BME280;7717;47.792;12.076;2024-02-26T00:11:06;94443.47;;;2.12;81.44
15229;BME280;7717;47.792;12.076;2024-02-26T00:13:32;94445.16;;;1.55;84.17
15229;BME280;7717;47.792;12.076;2024-02-26T00:15:57;94432.34;;;1.03;86.74
15229;BME280;7717;47.792;12.076;2024-02-26T00:18:22;94444.53;;;0.69;90.71
15229;BME280;7717;47.792;12.076;2024-02-26T00:20:47;94436.47;;;0.80;91.13
15229;BME280;7717;47.792;12.076;2024-02-26T00:23:15;94445.97;;;0.37;94.44
15229;BME280;7717;47.792;12.076;2024-02-26T00:25:40;94443.31;;;0.04;95.87
15229;BME280;7717;47.792;12.076;2024-02-26T00:28:08;94437.63;;;-0.18;97.95
15229;BME280;7717;47.792;12.076;2024-02-26T00:30:33;94428.16;;;-0.45;99.20
15229;BME280;7717;47.792;12.076;2024-02-26T00:32:59;94445.38;;;-0.53;100.00
15229;BME280;7717;47.792;12.076;2024-02-26T00:35:24;94454.50;;;-0.49;100.00
15229;BME280;7717;47.792;12.076;2024-02-26T00:37:49;94455.59;;;-0.52;100.00
15229;BME280;7717;47.792;12.076;2024-02-26T00:40:15;94449.16;;;-0.65;100.00
15229;BME280;7717;47.792;12.076;2024-02-26T00:42:40;94462.78;;;-0.63;100.00
15229;BME280;7717;47.792;12.076;2024-02-26T00:45:11;94463.34;;;-0.69;100.00
15229;BME280;7717;47.792;12.076;2024-02-26T00:47:36;94453.44;;;-0.74;100.00
15229;BME280;7717;47.792;12.076;2024-02-26T00:50:01;94459.69;;;-0.67;100.00
15229;BME280;7717;47.792;12.076;2024-02-26T00:52:27;94453.59;;;-0.75;100.00
15229;BME280;7717;47.792;12.076;2024-02-26T00:54:52;94452.47;;;-0.73;100.00
15229;BME280;7717;47.792;12.076;2024-02-26T00:57:18;94443.81;;;-0.82;100.00
15229;BME280;7717;47.792;12.076;2024-02-26T00:59:43;94449.41;;;-0.86;100.00
15229;BME280;7717;47.792;12.076;2024-02-26T01:02:08;94451.94;;;-0.94;100.00
15229;BME280;7717;47.792;12.076;2024-02-26T01:04:34;94451.16;;;-1.04;100.00
15229;BME280;7717;47.792;12.076;2024-02-26T01:06:59;94453.34;;;-1.09;100.00
15229;BME280;7717;47.792;12.076;2024-02-26T01:09:25;94456.78;;;-1.18;100.00
15229;BME280;7717;47.792;12.076;2024-02-26T01:11:50;94459.94;;;-1.25;100.00
15229;BME280;7717;47.792;12.076;2024-02-26T01:14:15;94426.16;;;-1.50;100.00
15229;BME280;7717;47.792;12.076;2024-02-26T01:16:41;94450.97;;;-0.93;100.00
15229;BME280;7717;47.792;12.076;2024-02-26T01:19:06;94445.22;;;-0.69;100.00
15229;BME280;7717;47.792;12.076;2024-02-26T01:21:31;94443.50;;;-0.78;100.00
15229;BME280;7717;47.792;12.076;2024-02-26T01:23:57;94443.72;;;-0.90;100.00
15229;BME280;7717;47.792;12.076;2024-02-26T01:26:22;94460.16;;;-0.81;100.00
15229;BME280;7717;47.792;12.076;2024-02-26T01:28:48;94449.81;;;-0.81;100.00
15229;BME280;7717;47.792;12.076;2024-02-26T01:31:13;94446.53;;;-0.83;100.00
15229;BME280;7717;47.792;12.076;2024-02-26T01:33:39;94444.53;;;-0.89;100.00
15229;BME280;7717;47.792;12.076;2024-02-26T01:36:04;94449.81;;;-0.81;100.00
15229;BME280;7717;47.792;12.076;2024-02-26T01:38:29;94449.09;;;-1.01;100.00
15229;BME280;7717;47.792;12.076;2024-02-26T01:40:55;94455.38;;;-1.03;100.00
15229;BME280;7717;47.792;12.076;2024-02-26T01:43:20;94452.19;;;-1.25;100.00
15229;BME280;7717;47.792;12.076;2024-02-26T01:45:46;94456.03;;;-1.29;100.00
15229;BME280;7717;47.792;12.076;2024-02-26T01:48:11;94453.88;;;-1.33;100.00
15229;BME280;7717;47.792;12.076;2024-02-26T01:50:37;94432.94;;;-1.40;100.00
15229;BME280;7717;47.792;12.076;2024-02-26T01:53:03;94458.75;;;-1.30;100.00
15229;BME280;7717;47.792;12.076;2024-02-26T01:55:29;94446.16;;;-1.52;100.00
15229;BME280;7717;47.792;12.076;2024-02-26T01:57:55;94457.50;;;-1.63;100.00
15229;BME280;7717;47.792;12.076;2024-02-26T02:00:22;94460.34;;;-1.66;100.00
15229;BME280;7717;47.792;12.076;2024-02-26T02:02:48;94451.81;;;-1.76;100.00
15229;BME280;7717;47.792;12.076;2024-02-26T02:05:15;94459.56;;;-1.67;100.00
15229;BME280;7717;47.792;12.076;2024-02-26T02:07:44;94462.00;;;-1.65;100.00
15229;BME280;7717;47.792;12.076;2024-02-26T02:10:09;94454.22;;;-1.65;100.00
15229;BME280;7717;47.792;12.076;2024-02-26T02:12:35;94454.41;;;-1.67;100.00
15229;BME280;7717;47.792;12.076;2024-02-26T02:15:01;94441.56;;;-1.58;100.00
15229;BME280;7717;47.792;12.076;2024-02-26T02:17:27;94440.22;;;-1.63;100.00
15229;BME280;7717;47.792;12.076;2024-02-26T02:19:53;94418.59;;;-1.71;100.00
15229;BME280;7717;47.792;12.076;2024-02-26T02:22:18;94444.19;;;-1.68;100.00
15229;BME280;7717;47.792;12.076;2024-02-26T02:24:44;94437.56;;;-1.80;100.00
15229;BME280;7717;47.792;12.076;2024-02-26T02:27:10;94440.84;;;-1.97;100.00
15229;BME280;7717;47.792;12.076;2024-02-26T02:29:36;94436.78;;;-2.00;100.00
15229;BME280;7717;47.792;12.076;2024-02-26T02:32:03;94435.00;;;-2.09;100.00
15229;BME280;7717;47.792;12.076;2024-02-26T02:34:29;94440.59;;;-2.14;100.00
15229;BME280;7717;47.792;12.076;2024-02-26T02:36:54;94433.25;;;-2.18;100.00
15229;BME280;7717;47.792;12.076;2024-02-26T02:39:20;94428.63;;;-2.15;100.00
15229;BME280;7717;47.792;12.076;2024-02-26T02:41:46;94432.69;;;-2.03;100.00
15229;BME280;7717;47.792;12.076;2024-02-26T02:44:11;94429.44;;;-2.14;100.00
15229;BME280;7717;47.792;12.076;2024-02-26T02:46:37;94431.78;;;-2.21;100.00
15229;BME280;7717;47.792;12.076;2024-02-26T02:49:02;94433.69;;;-2.42;100.00
15229;BME280;7717;47.792;12.076;2024-02-26T02:51:28;94431.63;;;-2.38;100.00
15229;BME280;7717;47.792;12.076;2024-02-26T02:53:53;94437.59;;;-2.38;100.00
15229;BME280;7717;47.792;12.076;2024-02-26T02:56:19;94437.88;;;-2.22;100.00
15229;BME280;7717;47.792;12.076;2024-02-26T02:58:44;94414.22;;;-2.36;100.00
15229;BME280;7717;47.792;12.076;2024-02-26T03:01:10;94429.03;;;-2.38;100.00
15229;BME280;7717;47.792;12.076;2024-02-26T03:03:35;94434.63;;;-2.24;100.00
15229;BME280;7717;47.792;12.076;2024-02-26T03:06:02;94432.44;;;-2.28;100.00
15229;BME280;7717;47.792;12.076;2024-02-26T03:08:28;94429.59;;;-2.16;100.00
15229;BME280;7717;47.792;12.076;2024-02-26T03:10:53;94422.38;;;-2.31;100.00
15229;BME280;7717;47.792;12.076;2024-02-26T03:13:19;94415.06;;;-2.36;100.00
15229;BME280;7717;47.792;12.076;2024-02-26T03:15:44;94418.84;;;-2.50;100.00
15229;BME280;7717;47.792;12.076;2024-02-26T03:18:09;94421.19;;;-2.47;100.00
15229;BME280;7717;47.792;12.076;2024-02-26T03:20:35;94413.28;;;-2.55;100.00
15229;BME280;7717;47.792;12.076;2024-02-26T03:23:00;94416.81;;;-2.65;100.00
15229;BME280;7717;47.792;12.076;2024-02-26T03:25:25;94419.56;;;-2.67;100.00
15229;BME280;7717;47.792;12.076;2024-02-26T03:27:51;94425.25;;;-2.63;100.00
15229;BME280;7717;47.792;12.076;2024-02-26T03:30:16;94423.59;;;-2.64;100.00
15229;BME280;7717;47.792;12.076;2024-02-26T03:32:41;94421.28;;;-2.38;100.00
15229;BME280;7717;47.792;12.076;2024-02-26T03:35:07;94421.31;;;-2.48;100.00
15229;BME280;7717;47.792;12.076;2024-02-26T03:37:33;94433.81;;;-2.44;100.00
15229;BME280;7717;47.792;12.076;2024-02-26T03:39:58;94428.66;;;-2.34;100.00
15229;BME280;7717;47.792;12.076;2024-02-26T03:42:24;94357.16;;;-2.72;100.00
15229;BME280;7717;47.792;12.076;2024-02-26T03:44:49;94426.56;;;-2.02;100.00
15229;BME280;7717;47.792;12.076;2024-02-26T03:47:16;94436.94;;;-2.21;100.00
15229;BME280;7717;47.792;12.076;2024-02-26T03:49:41;94430.94;;;-2.31;100.00
15229;BME280;7717;47.792;12.076;2024-02-26T03:52:07;94433.13;;;-2.46;100.00
15229;BME280;7717;47.792;12.076;2024-02-26T03:54:32;94418.88;;;-2.40;100.00
15229;BME280;7717;47.792;12.076;2024-02-26T03:56:57;94424.28;;;-2.43;100.00
15229;BME280;7717;47.792;12.076;2024-02-26T03:59:22;94417.88;;;-2.39;100.00
15229;BME280;7717;47.792;12.076;2024-02-26T04:01:50;94413.41;;;-2.37;100.00
15229;BME280;7717;47.792;12.076;2024-02-26T04:04:15;94421.28;;;-2.38;100.00
15229;BME280;7717;47.792;12.076;2024-02-26T04:06:46;94426.34;;;-2.47;100.00
15229;BME280;7717;47.792;12.076;2024-02-26T04:09:15;94426.63;;;-2.40;100.00
15229;BME280;7717;47.792;12.076;2024-02-26T04:11:41;94422.53;;;-2.43;100.00
15229;BME280;7717;47.792;12.076;2024-02-26T04:14:08;94424.03;;;-2.40;100.00
15229;BME280;7717;47.792;12.076;2024-02-26T04:16:34;94416.56;;;-2.43;100.00
15229;BME280;7717;47.792;12.076;2024-02-26T04:19:00;94416.09;;;-2.19;100.00
15229;BME280;7717;47.792;12.076;2024-02-26T04:21:26;94418.81;;;-2.11;100.00
15229;BME280;7717;47.792;12.076;2024-02-26T04:23:51;94419.50;;;-2.19;100.00
15229;BME280;7717;47.792;12.076;2024-02-26T04:26:20;94402.66;;;-2.23;100.00
15229;BME280;7717;47.792;12.076;2024-02-26T04:28:46;94418.94;;;-2.13;100.00
15229;BME280;7717;47.792;12.076;2024-02-26T04:31:11;94420.19;;;-2.17;100.00
15229;BME280;7717;47.792;12.076;2024-02-26T04:33:37;94433.94;;;-2.16;100.00
15229;BME280;7717;47.792;12.076;2024-02-26T04:36:02;94424.81;;;-2.11;100.00
15229;BME280;7717;47.792;12.076;2024-02-26T04:38:28;94429.97;;;-2.01;100.00
15229;BME280;7717;47.792;12.076;2024-02-26T04:40:53;94433.13;;;-2.07;100.00
15229;BME280;7717;47.792;12.076;2024-02-26T04:43:19;94421.09;;;-1.98;100.00
15229;BME280;7717;47.792;12.076;2024-02-26T04:45:44;94415.41;;;-2.02;100.00
15229;BME280;7717;47.792;12.076;2024-02-26T04:48:09;94411.38;;;-2.14;100.00
15229;BME280;7717;47.792;12.076;2024-02-26T04:50:35;94420.75;;;-2.23;100.00
15229;BME280;7717;47.792;12.076;2024-02-26T04:53:00;94419.41;;;-2.36;100.00
15229;BME280;7717;47.792;12.076;2024-02-26T04:55:25;94434.75;;;-2.45;100.00
15229;BME280;7717;47.792;12.076;2024-02-26T04:57:51;94438.84;;;-2.42;100.00
15229;BME280;7717;47.792;12.076;2024-02-26T05:00:16;94411.94;;;-2.39;100.00
15229;BME280;7717;47.792;12.076;2024-02-26T05:02:42;94429.06;;;-2.29;100.00
15229;BME280;7717;47.792;12.076;2024-02-26T05:05:08;94424.03;;;-2.21;100.00
15229;BME280;7717;47.792;12.076;2024-02-26T05:07:34;94426.59;;;-2.21;100.00
15229;BME280;7717;47.792;12.076;2024-02-26T05:10:04;94414.22;;;-2.36;100.00
15229;BME280;7717;47.792;12.076;2024-02-26T05:12:30;94418.84;;;-2.30;100.00
15229;BME280;7717;47.792;12.076;2024-02-26T05:14:56;94420.34;;;-2.37;100.00
15229;BME280;7717;47.792;12.076;2024-02-26T05:17:21;94422.00;;;-2.46;100.00
15229;BME280;7717;47.792;12.076;2024-02-26T05:19:46;94420.22;;;-2.46;100.00
15229;BME280;7717;47.792;12.076;2024-02-26T05:22:12;94412.06;;;-2.51;100.00
15229;BME280;7717;47.792;12.076;2024-02-26T05:24:38;94416.00;;;-2.66;100.00
15229;BME280;7717;47.792;12.076;2024-02-26T05:27:04;94417.78;;;-2.57;100.00
15229;BME280;7717;47.792;12.076;2024-02-26T05:29:29;94421.47;;;-2.59;100.00
15229;BME280;7717;47.792;12.076;2024-02-26T05:31:54;94405.41;;;-2.63;100.00
15229;BME280;7717;47.792;12.076;2024-02-26T05:34:20;94424.81;;;-2.59;100.00
15229;BME280;7717;47.792;12.076;2024-02-26T05:36:45;94432.31;;;-2.56;100.00
15229;BME280;7717;47.792;12.076;2024-02-26T05:39:10;94431.63;;;-2.58;100.00
15229;BME280;7717;47.792;12.076;2024-02-26T05:41:37;94434.22;;;-2.58;100.00
15229;BME280;7717;47.792;12.076;2024-02-26T05:44:02;94449.59;;;-2.47;100.00
15229;BME280;7717;47.792;12.076;2024-02-26T05:46:28;94441.97;;;-2.48;100.00
15229;BME280;7717;47.792;12.076;2024-02-26T05:48:54;94446.03;;;-2.46;100.00
15229;BME280;7717;47.792;12.076;2024-02-26T05:51:19;94447.00;;;-2.37;100.00
15229;BME280;7717;47.792;12.076;2024-02-26T05:53:45;94456.22;;;-2.44;100.00
15229;BME280;7717;47.792;12.076;2024-02-26T05:56:12;94447.13;;;-2.48;100.00
15229;BME280;7717;47.792;12.076;2024-02-26T05:58:37;94451.88;;;-2.44;100.00
15229;BME280;7717;47.792;12.076;2024-02-26T06:01:03;94457.75;;;-2.42;100.00
15229;BME280;7717;47.792;12.076;2024-02-26T06:03:29;94463.84;;;-2.43;100.00
15229;BME280;7717;47.792;12.076;2024-02-26T06:05:54;94469.97;;;-2.34;100.00
15229;BME280;7717;47.792;12.076;2024-02-26T06:08:20;94478.53;;;-2.24;100.00
15229;BME280;7717;47.792;12.076;2024-02-26T06:10:45;94471.47;;;-2.22;100.00
15229;BME280;7717;47.792;12.076;2024-02-26T06:13:10;94474.59;;;-2.28;100.00
15229;BME280;7717;47.792;12.076;2024-02-26T06:15:36;94472.00;;;-2.28;100.00
15229;BME280;7717;47.792;12.076;2024-02-26T06:18:01;94472.41;;;-2.23;100.00
15229;BME280;7717;47.792;12.076;2024-02-26T06:20:26;94374.56;;;-2.74;100.00
15229;BME280;7717;47.792;12.076;2024-02-26T06:22:52;94464.00;;;-2.15;100.00
15229;BME280;7717;47.792;12.076;2024-02-26T06:25:17;94445.63;;;-2.22;100.00
15229;BME280;7717;47.792;12.076;2024-02-26T06:27:42;94469.41;;;-1.89;100.00
15229;BME280;7717;47.792;12.076;2024-02-26T06:30:08;94475.09;;;-1.76;100.00
15229;BME280;7717;47.792;12.076;2024-02-26T06:32:36;94475.03;;;-1.47;100.00
15229;BME280;7717;47.792;12.076;2024-02-26T06:35:02;94469.53;;;-1.35;100.00
15229;BME280;7717;47.792;12.076;2024-02-26T06:37:32;94480.66;;;-1.25;100.00
15229;BME280;7717;47.792;12.076;2024-02-26T06:39:57;94476.41;;;-1.16;100.00
15229;BME280;7717;47.792;12.076;2024-02-26T06:42:23;94494.63;;;-1.08;100.00
15229;BME280;7717;47.792;12.076;2024-02-26T06:44:48;94494.34;;;-1.05;100.00
15229;BME280;7717;47.792;12.076;2024-02-26T06:47:13;94491.97;;;-0.98;100.00
15229;BME280;7717;47.792;12.076;2024-02-26T06:49:39;94495.28;;;-0.78;100.00
15229;BME280;7717;47.792;12.076;2024-02-26T06:52:04;94489.69;;;-0.74;100.00
15229;BME280;7717;47.792;12.076;2024-02-26T06:54:31;94486.34;;;-0.66;100.00
15229;BME280;7717;47.792;12.076;2024-02-26T06:56:56;94496.81;;;-0.58;100.00
15229;BME280;7717;47.792;12.076;2024-02-26T06:59:22;94500.81;;;-0.46;100.00
15229;BME280;7717;47.792;12.076;2024-02-26T07:01:48;94499.28;;;-0.39;100.00
15229;BME280;7717;47.792;12.076;2024-02-26T07:04:14;94500.78;;;-0.36;100.00
15229;BME280;7717;47.792;12.076;2024-02-26T07:06:39;94503.75;;;-0.31;100.00
15229;BME280;7717;47.792;12.076;2024-02-26T07:09:05;94496.03;;;-0.23;100.00
15229;BME280;7717;47.792;12.076;2024-02-26T07:11:30;94507.97;;;0.05;100.00
15229;BME280;7717;47.792;12.076;2024-02-26T07:13:55;94506.69;;;0.27;100.00
15229;BME280;7717;47.792;12.076;2024-02-26T07:16:21;94512.81;;;0.44;100.00
15229;BME280;7717;47.792;12.076;2024-02-26T07:18:46;94502.38;;;0.53;100.00
15229;BME280;7717;47.792;12.076;2024-02-26T07:21:12;94500.25;;;0.83;100.00
15229;BME280;7717;47.792;12.076;2024-02-26T07:23:37;94495.25;;;0.89;100.00
15229;BME280;7717;47.792;12.076;2024-02-26T07:26:03;94505.56;;;1.07;100.00
15229;BME280;7717;47.792;12.076;2024-02-26T07:28:28;94496.66;;;1.09;100.00
15229;BME280;7717;47.792;12.076;2024-02-26T07:30:54;94499.88;;;1.03;100.00
15229;BME280;7717;47.792;12.076;2024-02-26T07:33:19;94501.09;;;1.17;100.00
15229;BME280;7717;47.792;12.076;2024-02-26T07:35:44;94493.16;;;1.27;100.00
15229;BME280;7717;47.792;12.076;2024-02-26T07:38:10;94498.44;;;1.43;100.00
15229;BME280;7717;47.792;12.076;2024-02-26T07:40:35;94446.31;;;1.02;100.00
15229;BME280;7717;47.792;12.076;2024-02-26T07:43:01;94499.63;;;1.65;98.78
15229;BME280;7717;47.792;12.076;2024-02-26T07:45:26;94492.69;;;1.89;100.00
15229;BME280;7717;47.792;12.076;2024-02-26T07:47:52;94507.31;;;1.82;97.08
15229;BME280;7717;47.792;12.076;2024-02-26T07:50:18;94505.53;;;1.83;98.36
15229;BME280;7717;47.792;12.076;2024-02-26T07:52:44;94515.44;;;1.87;96.74
15229;BME280;7717;47.792;12.076;2024-02-26T07:55:10;94508.47;;;1.96;96.83
15229;BME280;7717;47.792;12.076;2024-02-26T07:57:36;94529.47;;;2.27;95.86
15229;BME280;7717;47.792;12.076;2024-02-26T08:00:02;94527.06;;;2.58;94.68
15229;BME280;7717;47.792;12.076;2024-02-26T08:02:28;94543.09;;;3.10;94.51
15229;BME280;7717;47.792;12.076;2024-02-26T08:04:53;94546.41;;;3.51;91.32
15229;BME280;7717;47.792;12.076;2024-02-26T08:07:19;94543.13;;;3.57;89.34
15229;BME280;7717;47.792;12.076;2024-02-26T08:09:45;94520.34;;;3.82;87.34
15229;BME280;7717;47.792;12.076;2024-02-26T08:12:11;94529.66;;;4.07;88.37
15229;BME280;7717;47.792;12.076;2024-02-26T08:14:36;94533.94;;;4.31;89.50
15229;BME280;7717;47.792;12.076;2024-02-26T08:17:02;94527.25;;;4.51;87.33
15229;BME280;7717;47.792;12.076;2024-02-26T08:19:27;94520.88;;;4.91;87.25
15229;BME280;7717;47.792;12.076;2024-02-26T08:21:52;94513.94;;;5.28;83.01
15229;BME280;7717;47.792;12.076;2024-02-26T08:24:18;94515.94;;;5.55;83.12
15229;BME280;7717;47.792;12.076;2024-02-26T08:26:43;94508.88;;;6.21;74.03
15229;BME280;7717;47.792;12.076;2024-02-26T08:29:08;94519.31;;;6.57;75.45
15229;BME280;7717;47.792;12.076;2024-02-26T08:31:34;94519.69;;;6.54;76.17
15229;BME280;7717;47.792;12.076;2024-02-26T08:34:02;94527.97;;;6.15;78.34
15229;BME280;7717;47.792;12.076;2024-02-26T08:36:28;94528.06;;;6.07;81.56
15229;BME280;7717;47.792;12.076;2024-02-26T08:38:53;94523.81;;;6.06;81.44
15229;BME280;7717;47.792;12.076;2024-02-26T08:41:19;94522.19;;;6.41;85.20
15229;BME280;7717;47.792;12.076;2024-02-26T08:43:44;94519.56;;;6.41;84.27
15229;BME280;7717;47.792;12.076;2024-02-26T08:46:09;94518.50;;;6.56;87.55
15229;BME280;7717;47.792;12.076;2024-02-26T08:48:35;94516.63;;;6.50;86.26
15229;BME280;7717;47.792;12.076;2024-02-26T08:51:07;94508.13;;;6.27;79.90
15229;BME280;7717;47.792;12.076;2024-02-26T08:53:33;94525.25;;;6.44;82.09
15229;BME280;7717;47.792;12.076;2024-02-26T08:55:58;94510.34;;;6.45;83.88
15229;BME280;7717;47.792;12.076;2024-02-26T08:58:24;94509.72;;;6.64;83.31
15229;BME280;7717;47.792;12.076;2024-02-26T09:00:49;94511.16;;;6.94;83.13
15229;BME280;7717;47.792;12.076;2024-02-26T09:03:14;94516.31;;;7.09;76.66
15229;BME280;7717;47.792;12.076;2024-02-26T09:05:40;94494.38;;;7.51;65.95
15229;BME280;7717;47.792;12.076;2024-02-26T09:08:05;94501.06;;;8.01;64.97
15229;BME280;7717;47.792;12.076;2024-02-26T09:10:31;94503.56;;;8.29;64.95
15229;BME280;7717;47.792;12.076;2024-02-26T09:12:58;94496.16;;;8.65;66.17
15229;BME280;7717;47.792;12.076;2024-02-26T09:15:25;94497.63;;;8.81;63.41
15229;BME280;7717;47.792;12.076;2024-02-26T09:17:50;94476.56;;;8.74;57.29
15229;BME280;7717;47.792;12.076;2024-02-26T09:20:17;94501.25;;;9.00;62.34
15229;BME280;7717;47.792;12.076;2024-02-26T09:22:46;94511.97;;;9.05;55.71
15229;BME280;7717;47.792;12.076;2024-02-26T09:25:11;94496.38;;;9.36;56.48
15229;BME280;7717;47.792;12.076;2024-02-26T09:27:36;94502.56;;;10.26;59.71
15229;BME280;7717;47.792;12.076;2024-02-26T09:30:02;94492.97;;;11.44;53.29
15229;BME280;7717;47.792;12.076;2024-02-26T09:32:28;94494.19;;;12.51;48.40
15229;BME280;7717;47.792;12.076;2024-02-26T09:34:53;94493.97;;;12.04;48.60
15229;BME280;7717;47.792;12.076;2024-02-26T09:37:18;94495.31;;;12.43;61.11
15229;BME280;7717;47.792;12.076;2024-02-26T09:39:44;94498.19;;;11.93;61.55
15229;BME280;7717;47.792;12.076;2024-02-26T09:42:11;94499.13;;;10.63;58.22
15229;BME280;7717;47.792;12.076;2024-02-26T09:44:40;94509.41;;;9.89;64.96
15229;BME280;7717;47.792;12.076;2024-02-26T09:47:09;94517.72;;;9.86;69.48
15229;BME280;7717;47.792;12.076;2024-02-26T09:49:36;94505.56;;;10.36;75.66
15229;BME280;7717;47.792;12.076;2024-02-26T09:52:04;94505.81;;;10.91;76.10
15229;BME280;7717;47.792;12.076;2024-02-26T09:54:29;94494.25;;;10.92;70.14
15229;BME280;7717;47.792;12.076;2024-02-26T09:56:59;94506.34;;;11.24;72.00
15229;BME280;7717;47.792;12.076;2024-02-26T09:59:26;94508.34;;;10.79;71.74
15229;BME280;7717;47.792;12.076;2024-02-26T10:01:53;94500.81;;;11.07;74.84
15229;BME280;7717;47.792;12.076;2024-02-26T10:04:19;94458.09;;;10.67;67.20
15229;BME280;7717;47.792;12.076;2024-02-26T10:06:46;94500.00;;;11.07;60.38
15229;BME280;7717;47.792;12.076;2024-02-26T10:09:12;94495.38;;;11.27;57.54
15229;BME280;7717;47.792;12.076;2024-02-26T10:11:38;94499.03;;;11.69;68.14
15229;BME280;7717;47.792;12.076;2024-02-26T10:14:05;94503.72;;;12.40;67.10
15229;BME280;7717;47.792;12.076;2024-02-26T10:16:31;94505.91;;;11.70;62.44
15229;BME280;7717;47.792;12.076;2024-02-26T10:18:58;94500.66;;;12.07;54.34
15229;BME280;7717;47.792;12.076;2024-02-26T10:21:23;94503.41;;;12.48;55.47
15229;BME280;7717;47.792;12.076;2024-02-26T10:23:49;94487.09;;;13.04;63.54
15229;BME280;7717;47.792;12.076;2024-02-26T10:26:19;94486.16;;;12.99;59.20
15229;BME280;7717;47.792;12.076;2024-02-26T10:28:45;94494.19;;;13.22;50.28
15229;BME280;7717;47.792;12.076;2024-02-26T10:31:11;94456.28;;;13.45;53.32
15229;BME280;7717;47.792;12.076;2024-02-26T10:33:37;94490.75;;;13.03;50.33
15229;BME280;7717;47.792;12.076;2024-02-26T10:36:04;94484.03;;;13.66;55.47
15229;BME280;7717;47.792;12.076;2024-02-26T10:38:31;94473.44;;;13.54;49.61
15229;BME280;7717;47.792;12.076;2024-02-26T10:40:57;94481.63;;;13.41;56.27
15229;BME280;7717;47.792;12.076;2024-02-26T10:43:22;94469.56;;;13.03;48.06
15229;BME280;7717;47.792;12.076;2024-02-26T10:45:47;94465.69;;;12.64;56.08
15229;BME280;7717;47.792;12.076;2024-02-26T10:48:14;94471.91;;;12.58;62.08
15229;BME280;7717;47.792;12.076;2024-02-26T10:50:40;94477.19;;;12.88;65.45
15229;BME280;7717;47.792;12.076;2024-02-26T10:53:20;94468.06;;;12.43;49.77
15229;BME280;7717;47.792;12.076;2024-02-26T10:55:59;94467.34;;;12.36;55.09
15229;BME280;7717;47.792;12.076;2024-02-26T10:58:26;94467.91;;;12.67;57.19
15229;BME280;7717;47.792;12.076;2024-02-26T11:00:52;94466.28;;;12.55;58.07
15229;BME280;7717;47.792;12.076;2024-02-26T11:03:18;94468.25;;;12.71;54.00
15229;BME280;7717;47.792;12.076;2024-02-26T11:05:46;94463.16;;;13.11;53.67
15229;BME280;7717;47.792;12.076;2024-02-26T11:08:13;94450.94;;;14.60;60.71
15229;BME280;7717;47.792;12.076;2024-02-26T11:10:39;94438.59;;;14.82;55.57
15229;BME280;7717;47.792;12.076;2024-02-26T11:13:06;94443.63;;;14.67;54.79
15229;BME280;7717;47.792;12.076;2024-02-26T11:15:33;94441.00;;;14.27;64.70
15229;BME280;7717;47.792;12.076;2024-02-26T11:17:59;94438.88;;;14.69;67.77
15229;BME280;7717;47.792;12.076;2024-02-26T11:20:28;94438.03;;;15.14;70.35
15229;BME280;7717;47.792;12.076;2024-02-26T11:22:53;94430.13;;;15.19;47.50
15229;BME280;7717;47.792;12.076;2024-02-26T11:25:19;94425.34;;;15.37;45.11
15229;BME280;7717;47.792;12.076;2024-02-26T11:27:48;94434.06;;;14.99;50.02
15229;BME280;7717;47.792;12.076;2024-02-26T11:30:15;94428.25;;;15.02;67.75
15229;BME280;7717;47.792;12.076;2024-02-26T11:32:47;94434.50;;;15.63;52.43
15229;BME280;7717;47.792;12.076;2024-02-26T11:35:12;94428.50;;;16.38;48.85
15229;BME280;7717;47.792;12.076;2024-02-26T11:37:41;94414.69;;;18.26;61.29
15229;BME280;7717;47.792;12.076;2024-02-26T11:40:11;94421.03;;;19.53;48.65
15229;BME280;7717;47.792;12.076;2024-02-26T11:42:43;94409.00;;;20.35;46.00
15229;BME280;7717;47.792;12.076;2024-02-26T11:48:21;94421.03;;;21.84;40.10
15229;BME280;7717;47.792;12.076;2024-02-26T11:50:55;94398.72;;;23.62;34.21
15229;BME280;7717;47.792;12.076;2024-02-26T11:55:46;94404.84;;;21.36;56.64
15229;BME280;7717;47.792;12.076;2024-02-26T11:58:11;94378.06;;;21.60;45.84
15229;BME280;7717;47.792;12.076;2024-02-26T12:00:40;94408.16;;;22.33;38.14
15229;BME280;7717;47.792;12.076;2024-02-26T12:03:05;94405.38;;;21.91;61.73
15229;BME280;7717;47.792;12.076;2024-02-26T12:05:34;94400.66;;;22.30;39.70
15229;BME280;7717;47.792;12.076;2024-02-26T12:08:03;94394.19;;;22.07;43.46
15229;BME280;7717;47.792;12.076;2024-02-26T12:13:07;94400.94;;;23.87;35.46
15229;BME280;7717;47.792;12.076;2024-02-26T12:15:36;94397.41;;;24.82;40.95
15229;BME280;7717;47.792;12.076;2024-02-26T12:18:03;94390.16;;;22.34;49.01
15229;BME280;7717;47.792;12.076;2024-02-26T12:20:30;94401.22;;;18.93;46.18
15229;BME280;7717;47.792;12.076;2024-02-26T12:22:56;94384.44;;;20.67;47.60
15229;BME280;7717;47.792;12.076;2024-02-26T12:25:24;94388.88;;;23.06;41.67
15229;BME280;7717;47.792;12.076;2024-02-26T12:27:50;94382.81;;;24.83;50.99
15229;BME280;7717;47.792;12.076;2024-02-26T12:30:16;94383.50;;;23.85;51.03
15229;BME280;7717;47.792;12.076;2024-02-26T12:32:41;94388.88;;;19.58;49.62
15229;BME280;7717;47.792;12.076;2024-02-26T12:35:07;94405.88;;;17.63;63.08
15229;BME280;7717;47.792;12.076;2024-02-26T12:37:33;94409.72;;;16.50;54.98
15229;BME280;7717;47.792;12.076;2024-02-26T12:39:58;94406.56;;;15.61;64.88
15229;BME280;7717;47.792;12.076;2024-02-26T12:42:23;94397.34;;;14.96;51.71
15229;BME280;7717;47.792;12.076;2024-02-26T12:44:49;94412.16;;;15.26;63.19
15229;BME280;7717;47.792;12.076;2024-02-26T12:47:15;94389.09;;;15.48;69.82
15229;BME280;7717;47.792;12.076;2024-02-26T12:49:47;94423.53;;;16.20;53.85
15229;BME280;7717;47.792;12.076;2024-02-26T12:52:13;94428.38;;;15.63;52.30
15229;BME280;7717;47.792;12.076;2024-02-26T12:54:39;94428.84;;;15.98;58.26
15229;BME280;7717;47.792;12.076;2024-02-26T12:57:08;94436.72;;;16.58;65.38
15229;BME280;7717;47.792;12.076;2024-02-26T12:59:34;94432.75;;;17.20;63.31